Time;durP1;ratioP1;P1;durP2;ratioP2;P2;SDS_P1;SDS_P2;PMS_P1;PMS_P2;Temp;Humidity;BMP_temperature;BMP_pressure;BME280_temperature;BME280_humidity;BME280_pressure;Samples;Min_cycle;Max_cycle;Signal;HPM_P1;HPM_P2
2024/01/02 00:00:31;;;;;;;32.40;23.00;;;;;;;3.48;100.00;98283.55;106337;1253;59853;-79
2024/01/02 00:02:59;;;;;;;30.90;21.50;;;;;;;3.45;100.00;98291.54;106943;1253;71814;-77
2024/01/02 00:05:26;;;;;;;29.30;21.40;;;;;;;3.42;100.00;98292.39;106871;1253;68911;-76
2024/01/02 00:07:54;;;;;;;29.20;22.70;;;;;;;3.40;100.00;98284.20;106079;1253;72332;-77
2024/01/02 00:10:22;;;;;;;30.90;22.30;;;;;;;3.39;100.00;98287.25;106515;1257;61784;-79
2024/01/02 00:12:50;;;;;;;33.20;23.00;;;;;;;3.38;100.00;98278.78;105827;1258;59527;-78
2024/01/02 00:15:17;;;;;;;27.90;20.50;;;;;;;3.36;99.98;98280.67;105872;1253;72826;-78
2024/01/02 00:17:45;;;;;;;28.20;21.70;;;;;;;3.33;99.99;98275.95;105714;1253;70418;-76
2024/01/02 00:20:13;;;;;;;30.20;21.50;;;;;;;3.32;99.97;98272.23;106053;1253;72599;-76
2024/01/02 00:22:41;;;;;;;28.30;19.50;;;;;;;3.30;99.98;98277.27;105862;1258;60345;-75
2024/01/02 00:25:08;;;;;;;29.50;20.40;;;;;;;3.27;99.75;98277.76;107069;1257;59578;-77
2024/01/02 00:27:36;;;;;;;25.90;18.80;;;;;;;3.25;99.54;98268.88;107466;1253;71770;-79
2024/01/02 00:30:04;;;;;;;24.30;17.50;;;;;;;3.23;98.51;98261.11;107520;1253;68757;-80
2024/01/02 00:32:33;;;;;;;22.90;17.90;;;;;;;3.23;98.30;98260.15;106874;1253;72016;-74
2024/01/02 00:35:03;;;;;;;21.40;15.30;;;;;;;3.22;98.11;98257.63;107231;1253;62797;-77
2024/01/02 00:37:31;;;;;;;22.00;15.40;;;;;;;3.22;97.72;98260.44;107186;1252;59085;-78
2024/01/02 00:39:58;;;;;;;22.30;16.00;;;;;;;3.24;96.85;98261.14;108457;1253;73725;-76
2024/01/02 00:42:26;;;;;;;22.90;15.50;;;;;;;3.27;96.85;98253.66;108459;1256;70347;-75
2024/01/02 00:44:53;;;;;;;22.10;16.20;;;;;;;3.30;96.63;98260.67;107963;1253;71401;-73
2024/01/02 00:47:21;;;;;;;19.60;13.70;;;;;;;3.32;96.19;98256.94;107981;1255;60154;-77
2024/01/02 00:49:49;;;;;;;20.80;13.80;;;;;;;3.37;95.63;98243.89;107573;1253;59105;-76
2024/01/02 00:52:16;;;;;;;16.60;11.20;;;;;;;3.40;95.50;98248.64;108302;1253;71756;-76
2024/01/02 00:54:44;;;;;;;13.40;9.90;;;;;;;3.43;94.63;98263.55;108503;1253;68762;-77
2024/01/02 00:57:12;;;;;;;11.40;9.10;;;;;;;3.45;93.50;98253.84;108519;1253;71206;-77
2024/01/02 00:59:39;;;;;;;12.30;8.50;;;;;;;3.49;92.98;98254.34;107109;1252;59696;-79
2024/01/02 01:02:07;;;;;;;9.30;6.40;;;;;;;3.51;91.94;98246.30;107436;1254;59977;-77
2024/01/02 01:04:34;;;;;;;7.60;5.60;;;;;;;3.51;90.59;98247.32;106836;1258;73295;-79
2024/01/02 01:07:02;;;;;;;6.20;4.70;;;;;;;3.52;90.50;98235.08;106798;1253;69994;-77
2024/01/02 01:09:30;;;;;;;5.50;4.10;;;;;;;3.52;89.47;98237.27;106999;1253;71405;-78
2024/01/02 01:11:57;;;;;;;5.80;4.20;;;;;;;3.53;89.37;98235.23;106635;1258;59596;-79
2024/01/02 01:14:26;;;;;;;5.90;4.20;;;;;;;3.52;89.92;98230.95;107978;1254;59129;-81
2024/01/02 01:16:53;;;;;;;4.30;3.40;;;;;;;3.51;89.74;98228.22;108835;1252;71428;-82
2024/01/02 01:19:21;;;;;;;4.50;3.30;;;;;;;3.46;89.08;98230.90;108778;1253;69010;-81
2024/01/02 01:21:49;;;;;;;4.40;3.20;;;;;;;3.45;89.43;98230.49;108278;1254;71305;-81
2024/01/02 01:24:16;;;;;;;5.60;3.50;;;;;;;3.49;89.32;98229.17;108616;1254;60365;-83
2024/01/02 01:26:45;;;;;;;3.80;2.80;;;;;;;3.48;89.45;98229.23;108553;1257;58967;-83
2024/01/02 01:29:12;;;;;;;4.30;2.70;;;;;;;3.46;88.89;98236.13;108529;1253;73091;-81
2024/01/02 01:31:42;;;;;;;3.50;2.10;;;;;;;3.46;88.50;98224.89;108452;1253;70555;-82
2024/01/02 01:34:10;;;;;;;2.70;1.80;;;;;;;3.48;88.15;98233.63;109267;1253;71472;-82
2024/01/02 01:36:39;;;;;;;3.40;2.60;;;;;;;3.48;88.39;98231.86;108990;1253;59214;-82
2024/01/02 01:39:07;;;;;;;2.60;1.70;;;;;;;3.46;88.50;98226.33;109028;1252;60136;-80
2024/01/02 01:41:34;;;;;;;3.60;2.10;;;;;;;3.40;88.84;98223.25;109085;1253;71589;-82
2024/01/02 01:44:02;;;;;;;2.60;2.00;;;;;;;3.43;88.64;98216.34;108665;1253;71464;-82
2024/01/02 01:46:35;;;;;;;2.30;1.60;;;;;;;3.45;88.97;98228.02;108474;1253;71619;-82
2024/01/02 01:49:04;;;;;;;2.70;1.60;;;;;;;3.38;89.03;98213.55;108318;1253;60870;-79
2024/01/02 01:51:32;;;;;;;2.30;1.70;;;;;;;3.39;89.12;98208.00;108349;1253;62073;-81
2024/01/02 01:54:00;;;;;;;2.20;1.70;;;;;;;3.40;89.39;98208.23;107738;1253;72771;-81
2024/01/02 01:56:28;;;;;;;3.50;2.10;;;;;;;3.39;89.26;98205.02;106060;1254;70069;-79
2024/01/02 01:58:56;;;;;;;2.20;1.60;;;;;;;3.37;89.03;98204.91;105943;1256;72790;-80
2024/01/02 02:01:26;;;;;;;2.40;1.50;;;;;;;3.32;89.69;98197.49;106800;1260;59604;-79
2024/01/02 02:03:56;;;;;;;2.20;1.50;;;;;;;3.28;89.19;98198.95;108253;1255;59087;-79
2024/01/02 02:06:23;;;;;;;2.30;1.60;;;;;;;3.21;89.07;98191.08;107457;1253;75671;-79
2024/01/02 02:08:51;;;;;;;1.90;1.40;;;;;;;3.22;89.30;98198.90;106793;1253;68762;-77
2024/01/02 02:11:19;;;;;;;2.10;1.10;;;;;;;3.22;88.49;98210.11;106490;1254;72997;-78
2024/01/02 02:13:47;;;;;;;2.80;1.60;;;;;;;3.22;88.44;98189.45;106579;1253;60427;-79
2024/01/02 02:16:15;;;;;;;2.10;1.60;;;;;;;3.18;88.52;98205.17;106329;1253;61427;-79
2024/01/02 02:18:42;;;;;;;1.80;1.20;;;;;;;3.10;88.86;98191.89;106458;1253;75950;-78
2024/01/02 02:21:10;;;;;;;2.60;1.40;;;;;;;3.08;88.50;98191.70;106371;1260;70099;-79
2024/01/02 02:23:38;;;;;;;1.70;1.30;;;;;;;3.12;88.83;98190.10;106097;1253;72460;-79
2024/01/02 02:26:05;;;;;;;2.20;1.70;;;;;;;3.09;88.63;98193.38;108513;1253;60317;-79
2024/01/02 02:28:33;;;;;;;2.00;1.20;;;;;;;3.00;88.72;98191.56;109169;1253;58780;-79
2024/01/02 02:31:00;;;;;;;2.60;1.50;;;;;;;3.02;88.82;98186.27;106940;1253;72772;-78
2024/01/02 02:33:29;;;;;;;2.20;1.20;;;;;;;3.05;88.70;98184.48;106463;1253;67833;-77
2024/01/02 02:35:58;;;;;;;2.00;1.30;;;;;;;3.03;87.95;98185.41;106243;1258;72172;-77
2024/01/02 02:38:25;;;;;;;2.00;1.30;;;;;;;2.98;88.14;98186.15;105926;1254;60900;-79
2024/01/02 02:40:53;;;;;;;3.20;1.30;;;;;;;3.00;87.96;98178.75;105964;1255;60429;-77
2024/01/02 02:43:20;;;;;;;2.00;1.60;;;;;;;3.02;87.96;98185.56;105924;1253;73812;-75
2024/01/02 02:45:48;;;;;;;1.30;1.00;;;;;;;2.96;87.51;98177.34;105757;1253;70381;-78
2024/01/02 02:48:15;;;;;;;2.10;1.30;;;;;;;2.91;87.43;98175.98;105942;1258;71587;-79
2024/01/02 02:50:43;;;;;;;1.90;1.20;;;;;;;2.92;87.06;98185.36;106034;1258;60341;-78
2024/01/02 02:53:11;;;;;;;1.40;1.00;;;;;;;2.93;86.55;98162.77;106072;1256;60503;-79
2024/01/02 02:55:38;;;;;;;1.50;0.90;;;;;;;2.90;87.01;98158.30;106041;1253;76019;-82
2024/01/02 02:58:06;;;;;;;2.10;0.90;;;;;;;2.87;86.90;98159.77;106022;1253;70007;-77
2024/01/02 03:00:35;;;;;;;1.40;0.90;;;;;;;2.90;87.47;98156.11;105933;1256;71474;-78
2024/01/02 03:03:03;;;;;;;1.40;1.00;;;;;;;2.85;87.43;98153.17;106024;1257;60303;-79
2024/01/02 03:05:31;;;;;;;1.20;1.00;;;;;;;2.79;87.92;98152.23;105971;1253;60843;-80
2024/01/02 03:07:59;;;;;;;1.60;1.10;;;;;;;2.79;88.23;98153.41;105885;1253;74100;-75
2024/01/02 03:10:27;;;;;;;1.60;0.90;;;;;;;2.74;88.65;98161.31;106014;1253;70149;-77
2024/01/02 03:12:54;;;;;;;2.40;0.70;;;;;;;2.72;88.70;98154.48;106048;1260;71529;-77
2024/01/02 03:15:22;;;;;;;1.10;0.70;;;;;;;2.74;88.96;98158.42;106060;1253;60911;-78
2024/01/02 03:17:49;;;;;;;2.20;0.90;;;;;;;2.72;89.64;98160.91;106329;1252;60534;-77
2024/01/02 03:20:17;;;;;;;2.10;0.90;;;;;;;2.68;89.95;98156.27;109018;1253;73194;-79
2024/01/02 03:22:45;;;;;;;1.60;0.60;;;;;;;2.73;89.46;98157.23;108863;1253;69032;-80
2024/01/02 03:25:12;;;;;;;1.40;0.90;;;;;;;2.75;89.50;98152.09;106746;1255;71867;-79
2024/01/02 03:27:40;;;;;;;1.10;1.00;;;;;;;2.73;89.50;98150.70;106376;1253;60463;-78
2024/01/02 03:30:08;;;;;;;2.60;1.70;;;;;;;2.65;89.51;98156.26;106067;1253;60544;-78
2024/01/02 03:32:36;;;;;;;3.40;2.10;;;;;;;2.64;89.59;98160.23;105944;1254;72642;-79
2024/01/02 03:35:04;;;;;;;2.30;1.30;;;;;;;2.69;89.35;98162.86;105977;1260;68758;-78
2024/01/02 03:37:32;;;;;;;1.40;0.90;;;;;;;2.71;89.34;98158.13;105897;1256;72693;-78
2024/01/02 03:39:59;;;;;;;1.30;1.00;;;;;;;2.72;89.65;98160.65;106064;1253;60439;-77
2024/01/02 03:42:27;;;;;;;1.60;1.10;;;;;;;2.68;89.05;98161.20;105766;1253;60518;-75
2024/01/02 03:44:54;;;;;;;1.00;0.90;;;;;;;2.62;88.99;98162.37;105893;1253;72544;-78
2024/01/02 03:47:22;;;;;;;1.50;0.80;;;;;;;2.66;88.98;98159.80;105944;1253;70420;-77
2024/01/02 03:49:49;;;;;;;2.40;0.90;;;;;;;2.67;88.77;98160.61;106003;1256;70666;-78
2024/01/02 03:52:17;;;;;;;1.80;1.00;;;;;;;2.60;88.70;98161.54;106067;1254;61713;-80
2024/01/02 03:54:45;;;;;;;1.00;0.80;;;;;;;2.61;88.79;98158.77;106312;1253;60460;-78
2024/01/02 03:57:12;;;;;;;1.30;0.90;;;;;;;2.63;88.98;98154.89;107184;1256;74016;-79
2024/01/02 03:59:40;;;;;;;1.10;0.70;;;;;;;2.57;88.17;98157.02;107720;1255;69098;-79
2024/01/02 04:02:07;;;;;;;1.40;0.90;;;;;;;2.54;88.41;98161.25;107105;1253;71070;-79
2024/01/02 04:04:38;;;;;;;1.10;0.70;;;;;;;2.60;88.28;98166.42;107119;1254;60535;-80
2024/01/02 04:07:06;;;;;;;1.90;1.10;;;;;;;2.63;87.90;98164.35;106966;1253;60382;-78
2024/01/02 04:09:33;;;;;;;1.00;0.70;;;;;;;2.59;88.30;98164.92;106665;1253;73855;-81
2024/01/02 04:12:01;;;;;;;1.80;0.80;;;;;;;2.59;88.09;98165.08;107488;1253;69949;-79
2024/01/02 04:14:28;;;;;;;1.10;0.60;;;;;;;2.62;87.56;98166.02;108541;1255;71209;-76
2024/01/02 04:16:56;;;;;;;0.70;0.70;;;;;;;2.59;87.83;98170.29;106730;1253;60990;-78
2024/01/02 04:19:24;;;;;;;1.30;0.80;;;;;;;2.59;87.50;98168.06;106170;1253;60605;-76
2024/01/02 04:21:51;;;;;;;1.00;0.70;;;;;;;2.57;88.08;98172.13;105866;1260;73907;-79
2024/01/02 04:24:19;;;;;;;1.10;0.70;;;;;;;2.53;87.50;98168.42;105899;1253;70317;-75
2024/01/02 04:26:46;;;;;;;0.70;0.60;;;;;;;2.59;87.91;98168.23;106055;1258;71465;-78
2024/01/02 04:29:14;;;;;;;0.80;0.70;;;;;;;2.53;87.33;98174.23;106366;1258;60509;-76
2024/01/02 04:31:41;;;;;;;0.60;0.50;;;;;;;2.45;87.00;98178.56;106054;1258;60508;-76
2024/01/02 04:34:09;;;;;;;1.00;0.70;;;;;;;2.44;86.69;98181.28;106093;1253;73414;-77
2024/01/02 04:36:40;;;;;;;0.70;0.60;;;;;;;2.45;86.83;98180.70;106162;1259;68882;-78
2024/01/02 04:39:07;;;;;;;0.90;0.70;;;;;;;2.36;86.92;98186.48;106182;1257;71798;-78
2024/01/02 04:41:35;;;;;;;0.80;0.80;;;;;;;2.35;86.81;98187.75;106268;1254;60430;-77
2024/01/02 04:44:03;;;;;;;1.20;0.80;;;;;;;2.37;87.07;98184.24;106098;1253;60363;-77
2024/01/02 04:46:30;;;;;;;1.10;0.70;;;;;;;2.36;87.41;98186.58;106041;1253;72323;-77
2024/01/02 04:48:58;;;;;;;1.30;0.90;;;;;;;2.38;87.47;98193.27;106125;1253;70454;-77
2024/01/02 04:51:27;;;;;;;2.00;1.00;;;;;;;2.38;87.15;98197.23;106017;1253;72671;-78
2024/01/02 04:53:55;;;;;;;1.30;0.90;;;;;;;2.34;87.63;98204.62;105945;1254;61719;-77
2024/01/02 04:56:22;;;;;;;0.90;0.80;;;;;;;2.37;87.80;98206.92;106028;1253;60432;-79
2024/01/02 04:58:50;;;;;;;1.10;0.80;;;;;;;2.32;87.41;98215.30;105936;1253;72641;-77
2024/01/02 05:01:18;;;;;;;1.90;0.60;;;;;;;2.20;87.22;98216.34;106078;1253;70264;-74
2024/01/02 05:03:45;;;;;;;0.90;0.60;;;;;;;2.21;87.57;98223.80;107973;1252;71967;-76
2024/01/02 05:06:13;;;;;;;0.80;0.70;;;;;;;2.26;87.98;98232.39;108641;1253;59640;-77
2024/01/02 05:08:40;;;;;;;1.00;0.60;;;;;;;2.26;88.18;98234.42;107646;1253;60861;-77
2024/01/02 05:13:48;;;;;;;0.90;0.60;;;;;;;2.25;88.30;98231.90;103325;1292;600413;-78
2024/01/02 05:16:16;;;;;;;0.90;0.70;;;;;;;2.28;87.87;98230.23;105764;1267;59596;-77
2024/01/02 05:18:43;;;;;;;1.30;1.00;;;;;;;2.31;87.75;98237.99;105419;1267;59439;-79
2024/01/02 05:21:11;;;;;;;0.90;0.70;;;;;;;2.25;87.49;98237.03;105641;1272;70927;-80
2024/01/02 05:23:39;;;;;;;0.90;0.80;;;;;;;2.18;88.00;98249.60;106184;1272;68988;-80
2024/01/02 05:26:06;;;;;;;1.70;1.00;;;;;;;2.21;88.05;98255.94;106030;1267;70514;-77
2024/01/02 05:28:34;;;;;;;0.70;0.70;;;;;;;2.20;87.09;98256.54;105511;1272;325862;-77
2024/01/02 05:31:01;;;;;;;1.60;0.90;;;;;;;2.12;87.39;98253.77;105829;1264;59323;-78
2024/01/02 05:33:30;;;;;;;1.30;0.90;;;;;;;2.09;87.88;98253.12;105669;1264;73755;-80
2024/01/02 05:47:17;;;;;;;1.30;1.00;;;;;;;2.65;86.87;98276.18;103302;1286;613017;-76
2024/01/02 05:49:45;;;;;;;1.70;1.00;;;;;;;2.65;86.39;98284.45;104808;1273;98386;-75
2024/01/02 05:52:12;;;;;;;1.80;1.20;;;;;;;2.57;86.40;98289.77;105242;1270;59375;-76
2024/01/02 05:54:40;;;;;;;1.10;0.90;;;;;;;2.44;86.97;98296.64;104947;1267;70950;-78
2024/01/02 05:57:09;;;;;;;2.30;0.90;;;;;;;2.30;87.61;98301.11;105175;1270;70467;-78
2024/01/02 05:59:37;;;;;;;3.60;1.20;;;;;;;2.27;87.55;98308.62;105064;1270;72709;-78
2024/01/02 06:02:05;;;;;;;3.60;1.20;;;;;;;2.20;87.65;98307.52;105253;1271;60075;-78
2024/01/02 06:04:32;;;;;;;1.00;0.80;;;;;;;2.09;88.33;98309.64;105212;1267;59464;-77
2024/01/02 06:07:00;;;;;;;1.40;0.80;;;;;;;2.09;88.05;98313.34;105216;1270;72385;-78
2024/01/02 06:09:27;;;;;;;1.00;0.70;;;;;;;2.02;87.62;98318.84;105017;1270;69035;-77
2024/01/02 06:11:55;;;;;;;1.10;0.70;;;;;;;1.93;88.03;98320.94;104879;1267;71408;-76
2024/01/02 06:14:23;;;;;;;1.00;0.80;;;;;;;1.95;88.23;98316.90;105195;1267;61088;-78
2024/01/02 06:16:50;;;;;;;1.20;1.00;;;;;;;1.99;88.41;98319.04;105691;1267;59638;-77
2024/01/02 06:19:19;;;;;;;0.70;0.60;;;;;;;1.93;88.72;98320.11;105045;1268;71843;-75
2024/01/02 06:21:47;;;;;;;2.90;0.90;;;;;;;1.92;88.66;98323.90;105306;1270;70345;-78
2024/01/02 06:24:14;;;;;;;0.70;0.50;;;;;;;1.97;88.72;98329.98;105712;1263;74609;-77
2024/01/02 06:26:42;;;;;;;1.00;0.90;;;;;;;1.97;87.87;98326.71;105918;1260;60188;-77
2024/01/02 06:29:09;;;;;;;0.70;0.60;;;;;;;1.91;88.16;98332.48;106098;1261;59560;-76
2024/01/02 06:31:37;;;;;;;0.60;0.60;;;;;;;1.85;88.44;98332.35;106729;1257;71761;-75
2024/01/02 06:34:04;;;;;;;0.80;0.60;;;;;;;1.92;88.20;98337.98;108602;1257;70062;-77
2024/01/02 06:36:32;;;;;;;1.50;0.70;;;;;;;1.96;88.10;98337.80;107892;1260;71090;-76
2024/01/02 06:38:59;;;;;;;2.10;0.70;;;;;;;1.95;87.61;98341.03;105968;1254;60074;-75
2024/01/02 06:41:27;;;;;;;1.00;0.80;;;;;;;1.86;87.51;98351.02;105807;1254;60029;-77
2024/01/02 06:43:54;;;;;;;0.80;0.60;;;;;;;1.86;87.44;98350.09;105660;1254;71544;-77
2024/01/02 06:46:22;;;;;;;1.00;0.50;;;;;;;1.90;87.48;98355.77;105644;1261;69097;-76
2024/01/02 06:48:49;;;;;;;0.80;0.60;;;;;;;1.86;87.62;98349.38;105821;1258;72450;-77
2024/01/02 06:51:17;;;;;;;0.50;0.50;;;;;;;1.77;87.36;98359.52;105468;1257;59763;-77
2024/01/02 06:53:45;;;;;;;1.00;0.60;;;;;;;1.74;87.08;98359.42;105959;1258;59993;-77
2024/01/02 06:56:12;;;;;;;1.00;0.80;;;;;;;1.73;87.16;98373.79;105896;1256;72023;-76
2024/01/02 06:58:44;;;;;;;0.70;0.60;;;;;;;1.64;87.76;98379.55;106307;1254;70604;-76
2024/01/02 07:01:15;;;;;;;1.60;0.80;;;;;;;1.59;87.69;98394.38;106287;1254;72851;-76
2024/01/02 07:03:44;;;;;;;0.70;0.60;;;;;;;1.63;87.34;98399.52;106434;1254;59705;-77
2024/01/02 07:06:11;;;;;;;0.60;0.60;;;;;;;1.61;86.80;98405.00;107820;1254;58428;-76
2024/01/02 07:08:39;;;;;;;1.40;0.60;;;;;;;1.53;86.88;98415.36;105947;1254;71626;-76
2024/01/02 07:11:06;;;;;;;0.70;0.70;;;;;;;1.53;86.77;98420.34;105902;1254;70156;-76
2024/01/02 07:13:34;;;;;;;1.40;0.70;;;;;;;1.58;86.76;98422.90;105713;1257;71627;-76
2024/01/02 07:16:02;;;;;;;0.80;0.60;;;;;;;1.52;86.23;98427.83;105725;1261;59517;-77
2024/01/02 07:18:30;;;;;;;2.10;0.80;;;;;;;1.43;86.80;98437.23;105818;1254;59662;-76
2024/01/02 07:20:58;;;;;;;1.10;0.70;;;;;;;1.42;87.06;98439.59;105703;1254;73414;-76
2024/01/02 07:23:25;;;;;;;1.80;0.90;;;;;;;1.47;86.98;98448.69;105830;1254;68114;-77
2024/01/02 07:25:53;;;;;;;1.00;0.80;;;;;;;1.42;87.45;98445.17;106604;1254;72703;-77
2024/01/02 07:28:20;;;;;;;1.10;0.80;;;;;;;1.34;87.62;98450.74;107591;1256;59643;-76
2024/01/02 07:30:50;;;;;;;1.40;1.00;;;;;;;1.37;87.69;98449.76;108311;1254;59532;-76
2024/01/02 07:33:18;;;;;;;2.50;1.60;;;;;;;1.42;87.49;98457.39;107594;1254;71792;-78
2024/01/02 07:35:46;;;;;;;7.30;5.20;;;;;;;1.37;87.14;98460.27;106145;1260;69117;-76
2024/01/02 07:38:13;;;;;;;12.50;10.30;;;;;;;1.27;86.90;98460.10;105754;1260;71584;-77
2024/01/02 07:40:41;;;;;;;31.70;25.20;;;;;;;1.28;86.97;98464.68;105881;1258;59831;-77
2024/01/02 07:43:09;;;;;;;23.80;19.90;;;;;;;1.37;86.59;98473.65;105781;1256;60012;-77
2024/01/02 07:45:36;;;;;;;37.50;27.90;;;;;;;1.36;86.45;98475.11;105750;1254;73147;-77
2024/01/02 07:48:04;;;;;;;18.00;14.70;;;;;;;1.31;86.24;98479.41;105880;1254;70192;-77
2024/01/02 07:50:34;;;;;;;15.40;12.00;;;;;;;1.38;85.91;98486.02;105728;1257;72193;-77
2024/01/02 07:53:01;;;;;;;7.00;5.60;;;;;;;1.45;85.17;98491.79;105917;1256;60049;-76
2024/01/02 07:55:29;;;;;;;3.50;2.70;;;;;;;1.41;85.07;98492.84;105810;1259;59719;-76
2024/01/02 07:57:57;;;;;;;7.90;6.70;;;;;;;1.32;84.52;98497.34;105835;1254;73528;-77
2024/01/02 08:00:25;;;;;;;13.60;8.80;;;;;;;1.28;83.19;98507.00;105713;1254;68810;-78
2024/01/02 08:02:52;;;;;;;14.00;11.90;;;;;;;1.26;82.59;98514.09;105618;1254;72614;-76
2024/01/02 08:05:20;;;;;;;40.20;33.10;;;;;;;1.15;82.52;98520.79;105598;1261;59632;-75
2024/01/02 08:07:47;;;;;;;61.10;49.40;;;;;;;1.02;82.95;98527.09;105751;1259;60262;-76
2024/01/02 08:10:32;;;;;;;29.60;24.70;;;;;;;0.97;83.29;98528.87;105714;1255;71859;-76
2024/01/02 08:13:13;;;;;;;13.00;10.90;;;;;;;1.03;83.34;98539.04;105593;1260;68869;-77
2024/01/02 08:15:41;;;;;;;6.80;5.10;;;;;;;0.93;83.54;98548.42;105773;1260;71965;-76
2024/01/02 08:18:09;;;;;;;4.50;3.80;;;;;;;0.90;83.89;98557.27;106002;1256;60161;-75
2024/01/02 08:20:38;;;;;;;3.80;2.80;;;;;;;0.93;83.10;98566.54;106250;1259;60075;-76
2024/01/02 08:23:06;;;;;;;4.70;2.50;;;;;;;0.87;82.77;98569.70;106721;1253;73900;-75
2024/01/02 08:25:34;;;;;;;7.90;6.30;;;;;;;0.75;82.67;98575.66;107991;1259;69148;-75
2024/01/02 08:28:01;;;;;;;15.80;11.80;;;;;;;0.71;81.57;98582.08;107764;1256;70794;-75
2024/01/02 08:30:29;;;;;;;19.60;14.00;;;;;;;0.72;80.54;98580.59;107213;1254;59791;-74
2024/01/02 08:32:56;;;;;;;8.50;5.10;;;;;;;0.65;79.56;98585.05;106097;1259;61073;-76
2024/01/02 08:35:24;;;;;;;10.40;7.20;;;;;;;0.54;79.87;98595.70;105960;1259;72165;-75
2024/01/02 08:37:52;;;;;;;8.30;6.30;;;;;;;0.55;79.25;98599.50;105799;1259;70985;-76
2024/01/02 08:40:20;;;;;;;13.80;10.40;;;;;;;0.59;78.76;98599.66;108065;1256;72808;-75
2024/01/02 08:42:47;;;;;;;6.90;5.40;;;;;;;0.54;77.46;98603.06;107981;1257;59754;-76
2024/01/02 08:45:15;;;;;;;3.60;3.00;;;;;;;0.43;77.89;98602.80;105521;1256;59698;-76
2024/01/02 08:47:42;;;;;;;3.60;2.50;;;;;;;0.34;78.07;98601.14;105744;1260;73032;-76
2024/01/02 08:50:10;;;;;;;2.40;1.80;;;;;;;0.37;78.04;98602.61;105672;1260;68738;-76
2024/01/02 08:52:37;;;;;;;4.00;3.10;;;;;;;0.41;77.75;98603.33;105850;1257;72783;-76
2024/01/02 08:55:05;;;;;;;3.20;2.60;;;;;;;0.33;77.88;98603.25;105845;1254;59690;-75
2024/01/02 08:57:33;;;;;;;6.10;4.40;;;;;;;0.22;77.00;98601.30;105916;1259;59608;-81
2024/01/02 09:00:01;;;;;;;12.00;9.80;;;;;;;0.16;76.54;98608.02;106268;1254;75484;-81
2024/01/02 09:02:28;;;;;;;51.40;37.80;;;;;;;0.06;76.81;98614.95;105981;1254;69357;-82
2024/01/02 09:04:56;;;;;;;21.40;15.50;;;;;;;-0.08;77.13;98621.75;105991;1260;71445;-81
2024/01/02 09:07:23;;;;;;;36.30;27.00;;;;;;;-0.12;77.43;98621.73;106013;1256;59730;-81
2024/01/02 09:09:51;;;;;;;11.90;9.40;;;;;;;-0.04;77.46;98637.59;107008;1254;60184;-81
2024/01/02 09:12:18;;;;;;;6.40;4.40;;;;;;;-0.08;77.52;98646.06;107166;1254;72837;-82
2024/01/02 09:14:46;;;;;;;7.30;4.50;;;;;;;-0.17;77.40;98645.61;106229;1255;68846;-80
2024/01/02 09:17:14;;;;;;;8.70;4.70;;;;;;;-0.27;77.15;98654.96;106089;1256;71428;-81
2024/01/02 09:19:42;;;;;;;6.10;3.60;;;;;;;-0.27;77.22;98654.11;107093;1261;59572;-80
2024/01/02 09:22:10;;;;;;;7.40;4.00;;;;;;;-0.21;77.10;98658.75;109215;1254;59395;-82
2024/01/02 09:24:41;;;;;;;6.50;5.30;;;;;;;-0.26;77.03;98660.05;108881;1256;72015;-81
2024/01/02 09:27:09;;;;;;;7.30;5.50;;;;;;;-0.35;76.82;98665.36;107033;1254;69987;-80
2024/01/02 09:29:36;;;;;;;8.50;6.00;;;;;;;-0.43;77.21;98668.58;106625;1258;71696;-81
2024/01/02 09:32:10;;;;;;;5.10;2.80;;;;;;;-0.40;77.08;98667.68;106263;1254;60948;-81
2024/01/02 09:34:37;;;;;;;4.20;3.30;;;;;;;-0.36;76.77;98667.19;106134;1256;59781;-80
2024/01/02 09:37:08;;;;;;;6.20;4.50;;;;;;;-0.43;76.30;98674.89;106105;1256;75720;-82
2024/01/02 09:39:35;;;;;;;5.60;4.10;;;;;;;-0.53;76.56;98676.73;106230;1253;72351;-81
2024/01/02 09:42:34;;;;;;;12.90;9.30;;;;;;;-0.57;76.40;98680.70;106628;1256;72829;-83
2024/01/02 09:45:12;;;;;;;9.00;6.70;;;;;;;-0.52;75.76;98685.18;106725;1259;59629;-81
2024/01/02 09:47:43;;;;;;;4.90;3.10;;;;;;;-0.64;74.09;98683.52;106464;1255;59687;-81
2024/01/02 09:50:17;;;;;;;20.60;13.50;;;;;;;-0.80;73.52;98682.72;106976;1254;71952;-82
2024/01/02 09:52:51;;;;;;;;;;;;;;;-0.93;73.61;98687.36;108091;1258;68736;-82
2024/01/02 09:55:40;;;;;;;33.20;23.10;;;;;;;-1.02;74.08;98685.77;106414;1254;71427;-82
2024/01/02 09:58:23;;;;;;;36.00;28.00;;;;;;;-0.92;74.22;98690.27;106621;1257;60550;-80
2024/01/02 10:01:03;;;;;;;12.80;8.90;;;;;;;-0.89;74.11;98688.92;106463;1256;60532;-80
2024/01/02 10:04:08;;;;;;;8.20;5.60;;;;;;;-0.96;73.95;98686.59;107252;1255;74182;-81
2024/01/02 10:07:08;;;;;;;10.00;6.50;;;;;;;-1.08;73.42;98682.63;106664;1257;69094;-83
2024/01/02 10:09:59;;;;;;;83.90;55.30;;;;;;;-1.17;73.76;98681.92;106494;1260;72719;-85
2024/01/02 10:12:37;;;;;;;53.80;36.60;;;;;;;-1.10;73.80;98680.70;107909;1254;60283;-83
2024/01/02 10:15:37;;;;;;;46.40;32.80;;;;;;;-0.94;73.89;98683.10;107647;1255;60280;-85
2024/01/02 10:18:13;;;;;;;32.30;23.00;;;;;;;-0.95;73.64;98678.13;108888;1258;71743;-85
2024/01/02 10:21:02;;;;;;;29.50;18.50;;;;;;;-0.98;73.95;98681.15;108777;1257;69455;-83
2024/01/02 10:23:45;;;;;;;38.20;26.10;;;;;;;-0.99;74.44;98669.79;108328;1258;70737;-84
2024/01/02 10:26:15;;;;;;;77.40;50.80;;;;;;;-0.83;73.99;98672.86;108367;1261;59798;-80
2024/01/02 10:28:43;;;;;;;116.40;78.40;;;;;;;-0.72;74.05;98670.59;107312;1258;61092;-81
2024/01/02 10:31:25;;;;;;;153.00;103.20;;;;;;;-0.70;74.22;98671.67;107220;1257;72638;-82
2024/01/02 10:34:05;;;;;;;155.50;104.70;;;;;;;-0.78;74.58;98672.98;106738;1265;68083;-80
2024/01/02 10:36:37;;;;;;;150.80;100.20;;;;;;;-0.86;74.76;98673.77;106257;1259;72462;-82
2024/01/02 10:39:10;;;;;;;111.80;70.70;;;;;;;-0.83;74.52;98673.52;105777;1260;60401;-80
2024/01/02 10:41:53;;;;;;;;;;;;;;;-0.75;74.69;98673.95;105876;1263;60509;-78
2024/01/02 10:44:30;;;;;;;140.10;89.40;;;;;;;-0.77;74.59;98672.40;105763;1264;71873;-80
2024/01/02 10:47:16;;;;;;;184.10;119.00;;;;;;;-0.87;73.75;98666.91;105630;1259;70374;-78
2024/01/02 10:49:51;;;;;;;129.10;85.20;;;;;;;-1.01;73.87;98671.98;105740;1262;71084;-77
2024/01/02 10:52:30;;;;;;;151.80;96.60;;;;;;;-1.01;73.68;98672.00;105680;1263;60568;-78
2024/01/02 10:55:01;;;;;;;153.40;95.60;;;;;;;-1.00;73.82;98672.64;105575;1257;60996;-76
2024/01/02 10:57:54;;;;;;;156.60;104.40;;;;;;;-1.08;74.03;98677.91;105619;1264;72367;-78
2024/01/02 11:00:24;;;;;;;101.60;61.80;;;;;;;-1.15;74.16;98676.05;106354;1258;69221;-80
2024/01/02 11:02:57;;;;;;;76.20;49.00;;;;;;;-1.14;74.12;98677.50;107707;1260;70932;-80
2024/01/02 11:05:49;;;;;;;71.20;43.40;;;;;;;-1.04;73.74;98677.05;106312;1259;60470;-79
2024/01/02 11:08:36;;;;;;;34.30;23.70;;;;;;;-1.06;73.05;98680.05;105987;1265;62028;-78
2024/01/02 11:11:06;;;;;;;40.10;25.80;;;;;;;-1.12;73.13;98690.59;106032;1257;72711;-78
2024/01/02 11:13:38;;;;;;;20.30;12.10;;;;;;;-1.14;72.62;98697.02;106530;1257;71448;-79
2024/01/02 11:16:11;;;;;;;13.70;9.10;;;;;;;-1.09;71.94;98705.84;108592;1257;72607;-78
2024/01/02 11:18:40;;;;;;;67.50;43.60;;;;;;;-1.09;72.35;98708.60;108230;1260;60304;-79
2024/01/02 11:21:17;;;;;;;135.10;78.60;;;;;;;-1.07;72.91;98711.95;106328;1260;60739;-78
2024/01/02 11:23:47;;;;;;;83.40;54.30;;;;;;;-0.93;72.78;98714.66;106406;1258;72615;-82
2024/01/02 11:26:30;;;;;;;39.70;27.20;;;;;;;-0.88;73.28;98718.14;106140;1264;70794;-80
2024/01/02 11:29:00;;;;;;;31.30;19.60;;;;;;;-0.91;72.52;98720.77;106206;1261;71434;-81
2024/01/02 11:31:30;;;;;;;33.50;21.80;;;;;;;-0.92;72.36;98721.85;106153;1260;60555;-80
2024/01/02 11:34:22;;;;;;;40.80;24.20;;;;;;;-0.84;72.23;98722.27;106091;1263;60417;-81
2024/01/02 11:37:05;;;;;;;58.30;35.30;;;;;;;-0.90;71.46;98724.52;105721;1258;74859;-79
2024/01/02 11:39:51;;;;;;;31.80;19.20;;;;;;;-1.06;72.04;98719.12;106035;1263;69199;-79
2024/01/02 11:42:27;;;;;;;22.50;13.70;;;;;;;-1.08;72.04;98721.37;105646;1264;72770;-78
2024/01/02 11:45:08;;;;;;;16.20;9.50;;;;;;;-1.00;72.04;98720.58;105690;1259;60301;-77
2024/01/02 11:47:44;;;;;;;11.20;6.70;;;;;;;-1.08;72.03;98723.48;106637;1257;60462;-78
2024/01/02 11:50:15;;;;;;;12.00;6.20;;;;;;;-1.21;71.91;98723.93;106093;1257;74413;-79
2024/01/02 11:52:46;;;;;;;10.10;5.10;;;;;;;-1.23;72.15;98730.66;107125;1257;69348;-80